sensor_id;sensor_type;location;lat;lon;timestamp;P1;durP1;ratioP1;P2;durP2;ratioP2
15553;SDS011;7878;44.632;10.942;2023-05-07T00:01:16;14.50;;;12.63;;
15553;SDS011;7878;44.632;10.942;2023-05-07T00:03:42;14.60;;;13.07;;
15553;SDS011;7878;44.632;10.942;2023-05-07T00:06:07;14.70;;;12.95;;
15553;SDS011;7878;44.632;10.942;2023-05-07T00:08:33;13.77;;;12.18;;
15553;SDS011;7878;44.632;10.942;2023-05-07T00:10:58;13.50;;;12.15;;
15553;SDS011;7878;44.632;10.942;2023-05-07T00:13:24;14.60;;;12.40;;
15553;SDS011;7878;44.632;10.942;2023-05-07T00:15:50;14.95;;;12.52;;
15553;SDS011;7878;44.632;10.942;2023-05-07T00:18:15;16.15;;;13.88;;
15553;SDS011;7878;44.632;10.942;2023-05-07T00:20:41;18.15;;;13.57;;
15553;SDS011;7878;44.632;10.942;2023-05-07T00:23:07;14.85;;;13.35;;
15553;SDS011;7878;44.632;10.942;2023-05-07T00:25:32;18.15;;;13.55;;
15553;SDS011;7878;44.632;10.942;2023-05-07T00:27:58;18.85;;;13.88;;
15553;SDS011;7878;44.632;10.942;2023-05-07T00:30:28;16.83;;;14.25;;
15553;SDS011;7878;44.632;10.942;2023-05-07T00:32:54;18.00;;;15.40;;
15553;SDS011;7878;44.632;10.942;2023-05-07T00:35:20;17.15;;;15.18;;
15553;SDS011;7878;44.632;10.942;2023-05-07T00:37:45;16.85;;;15.05;;
15553;SDS011;7878;44.632;10.942;2023-05-07T00:40:11;18.00;;;16.05;;
15553;SDS011;7878;44.632;10.942;2023-05-07T00:42:37;21.17;;;18.05;;
15553;SDS011;7878;44.632;10.942;2023-05-07T00:45:04;17.75;;;16.00;;
15553;SDS011;7878;44.632;10.942;2023-05-07T00:47:30;21.10;;;18.00;;
15553;SDS011;7878;44.632;10.942;2023-05-07T00:49:56;21.27;;;19.13;;
15553;SDS011;7878;44.632;10.942;2023-05-07T00:52:22;23.13;;;19.85;;
15553;SDS011;7878;44.632;10.942;2023-05-07T00:54:51;21.73;;;19.48;;
15553;SDS011;7878;44.632;10.942;2023-05-07T00:57:17;21.02;;;18.88;;
15553;SDS011;7878;44.632;10.942;2023-05-07T00:59:44;22.50;;;18.85;;
15553;SDS011;7878;44.632;10.942;2023-05-07T01:02:09;21.40;;;19.13;;
15553;SDS011;7878;44.632;10.942;2023-05-07T01:04:35;21.15;;;19.02;;
15553;SDS011;7878;44.632;10.942;2023-05-07T01:07:01;20.92;;;18.50;;
15553;SDS011;7878;44.632;10.942;2023-05-07T01:09:28;20.90;;;18.30;;
15553;SDS011;7878;44.632;10.942;2023-05-07T01:11:54;19.45;;;17.63;;
15553;SDS011;7878;44.632;10.942;2023-05-07T01:14:22;22.08;;;16.77;;
15553;SDS011;7878;44.632;10.942;2023-05-07T01:16:48;19.08;;;17.17;;
15553;SDS011;7878;44.632;10.942;2023-05-07T01:19:16;19.40;;;17.35;;
15553;SDS011;7878;44.632;10.942;2023-05-07T01:21:45;18.63;;;16.83;;
15553;SDS011;7878;44.632;10.942;2023-05-07T01:24:12;18.50;;;16.65;;
15553;SDS011;7878;44.632;10.942;2023-05-07T01:26:40;21.65;;;17.13;;
15553;SDS011;7878;44.632;10.942;2023-05-07T01:29:07;19.77;;;17.85;;
15553;SDS011;7878;44.632;10.942;2023-05-07T01:31:33;18.25;;;16.27;;
15553;SDS011;7878;44.632;10.942;2023-05-07T01:34:00;20.23;;;15.82;;
15553;SDS011;7878;44.632;10.942;2023-05-07T01:36:28;18.15;;;16.30;;
15553;SDS011;7878;44.632;10.942;2023-05-07T01:38:55;21.65;;;15.15;;
15553;SDS011;7878;44.632;10.942;2023-05-07T01:41:22;17.98;;;16.05;;
15553;SDS011;7878;44.632;10.942;2023-05-07T01:43:49;15.90;;;14.30;;
15553;SDS011;7878;44.632;10.942;2023-05-07T01:46:17;15.57;;;13.38;;
15553;SDS011;7878;44.632;10.942;2023-05-07T01:48:43;17.15;;;13.57;;
15553;SDS011;7878;44.632;10.942;2023-05-07T01:51:10;15.52;;;13.85;;
15553;SDS011;7878;44.632;10.942;2023-05-07T01:53:36;16.20;;;13.43;;
15553;SDS011;7878;44.632;10.942;2023-05-07T01:56:05;21.45;;;13.05;;
15553;SDS011;7878;44.632;10.942;2023-05-07T01:58:32;14.10;;;12.65;;
15553;SDS011;7878;44.632;10.942;2023-05-07T02:00:58;15.43;;;13.15;;
15553;SDS011;7878;44.632;10.942;2023-05-07T02:03:23;15.05;;;13.55;;
15553;SDS011;7878;44.632;10.942;2023-05-07T02:05:49;16.85;;;13.93;;
15553;SDS011;7878;44.632;10.942;2023-05-07T02:08:15;15.43;;;13.73;;
15553;SDS011;7878;44.632;10.942;2023-05-07T02:10:40;14.95;;;13.50;;
15553;SDS011;7878;44.632;10.942;2023-05-07T02:13:06;15.43;;;13.75;;
15553;SDS011;7878;44.632;10.942;2023-05-07T02:15:31;15.18;;;13.63;;
15553;SDS011;7878;44.632;10.942;2023-05-07T02:18:04;17.13;;;13.70;;
15553;SDS011;7878;44.632;10.942;2023-05-07T02:20:31;17.92;;;14.98;;
15553;SDS011;7878;44.632;10.942;2023-05-07T02:22:57;16.70;;;13.50;;
15553;SDS011;7878;44.632;10.942;2023-05-07T02:25:23;16.30;;;14.63;;
15553;SDS011;7878;44.632;10.942;2023-05-07T02:27:48;18.20;;;14.38;;
15553;SDS011;7878;44.632;10.942;2023-05-07T02:30:14;16.65;;;14.90;;
15553;SDS011;7878;44.632;10.942;2023-05-07T02:32:40;17.23;;;14.15;;
15553;SDS011;7878;44.632;10.942;2023-05-07T02:35:06;16.25;;;13.75;;
15553;SDS011;7878;44.632;10.942;2023-05-07T02:37:32;16.83;;;14.88;;
15553;SDS011;7878;44.632;10.942;2023-05-07T02:39:57;16.63;;;14.02;;
15553;SDS011;7878;44.632;10.942;2023-05-07T02:42:23;20.25;;;14.70;;
15553;SDS011;7878;44.632;10.942;2023-05-07T02:44:48;17.92;;;15.63;;
15553;SDS011;7878;44.632;10.942;2023-05-07T02:47:14;17.13;;;15.27;;
15553;SDS011;7878;44.632;10.942;2023-05-07T02:49:40;17.17;;;14.73;;
15553;SDS011;7878;44.632;10.942;2023-05-07T02:52:06;18.48;;;16.50;;
15553;SDS011;7878;44.632;10.942;2023-05-07T02:54:32;21.17;;;15.52;;
15553;SDS011;7878;44.632;10.942;2023-05-07T02:56:58;18.63;;;15.40;;
15553;SDS011;7878;44.632;10.942;2023-05-07T02:59:25;16.98;;;15.27;;
15553;SDS011;7878;44.632;10.942;2023-05-07T03:01:51;19.58;;;15.57;;
15553;SDS011;7878;44.632;10.942;2023-05-07T03:04:17;20.35;;;16.13;;
15553;SDS011;7878;44.632;10.942;2023-05-07T03:06:43;17.17;;;15.35;;
15553;SDS011;7878;44.632;10.942;2023-05-07T03:09:08;17.58;;;15.68;;
15553;SDS011;7878;44.632;10.942;2023-05-07T03:11:34;16.77;;;15.05;;
15553;SDS011;7878;44.632;10.942;2023-05-07T03:14:00;21.08;;;15.85;;
15553;SDS011;7878;44.632;10.942;2023-05-07T03:16:26;20.15;;;15.60;;
15553;SDS011;7878;44.632;10.942;2023-05-07T03:18:52;17.95;;;16.15;;
15553;SDS011;7878;44.632;10.942;2023-05-07T03:21:18;18.80;;;15.90;;
15553;SDS011;7878;44.632;10.942;2023-05-07T03:23:43;18.90;;;15.07;;
15553;SDS011;7878;44.632;10.942;2023-05-07T03:26:09;20.65;;;15.85;;
15553;SDS011;7878;44.632;10.942;2023-05-07T03:28:35;18.50;;;16.25;;
15553;SDS011;7878;44.632;10.942;2023-05-07T03:31:00;19.98;;;16.35;;
15553;SDS011;7878;44.632;10.942;2023-05-07T03:33:26;24.23;;;17.35;;
15553;SDS011;7878;44.632;10.942;2023-05-07T03:35:52;18.77;;;15.45;;
15553;SDS011;7878;44.632;10.942;2023-05-07T03:38:18;17.85;;;15.95;;
15553;SDS011;7878;44.632;10.942;2023-05-07T03:40:43;18.65;;;16.30;;
15553;SDS011;7878;44.632;10.942;2023-05-07T03:43:09;19.17;;;17.17;;
15553;SDS011;7878;44.632;10.942;2023-05-07T03:45:35;22.08;;;16.70;;
15553;SDS011;7878;44.632;10.942;2023-05-07T03:48:01;19.15;;;17.15;;
15553;SDS011;7878;44.632;10.942;2023-05-07T03:50:26;19.48;;;16.95;;
15553;SDS011;7878;44.632;10.942;2023-05-07T03:52:52;23.77;;;18.83;;
15553;SDS011;7878;44.632;10.942;2023-05-07T03:55:18;22.65;;;19.13;;
15553;SDS011;7878;44.632;10.942;2023-05-07T03:57:43;21.75;;;17.95;;
15553;SDS011;7878;44.632;10.942;2023-05-07T04:00:09;20.77;;;18.50;;
15553;SDS011;7878;44.632;10.942;2023-05-07T04:02:35;21.38;;;19.15;;
15553;SDS011;7878;44.632;10.942;2023-05-07T04:05:01;25.63;;;19.10;;
15553;SDS011;7878;44.632;10.942;2023-05-07T04:07:26;21.73;;;18.58;;
15553;SDS011;7878;44.632;10.942;2023-05-07T04:09:52;20.85;;;18.75;;
15553;SDS011;7878;44.632;10.942;2023-05-07T04:12:18;20.70;;;18.45;;
15553;SDS011;7878;44.632;10.942;2023-05-07T04:14:43;24.45;;;19.88;;
15553;SDS011;7878;44.632;10.942;2023-05-07T04:17:10;22.30;;;20.02;;
15553;SDS011;7878;44.632;10.942;2023-05-07T04:19:35;23.30;;;19.63;;
15553;SDS011;7878;44.632;10.942;2023-05-07T04:22:01;23.30;;;20.92;;
15553;SDS011;7878;44.632;10.942;2023-05-07T04:24:27;22.88;;;20.35;;
15553;SDS011;7878;44.632;10.942;2023-05-07T04:26:52;22.90;;;20.00;;
15553;SDS011;7878;44.632;10.942;2023-05-07T04:29:20;22.02;;;19.67;;
15553;SDS011;7878;44.632;10.942;2023-05-07T04:31:46;21.40;;;19.20;;
15553;SDS011;7878;44.632;10.942;2023-05-07T04:34:11;22.83;;;20.45;;
15553;SDS011;7878;44.632;10.942;2023-05-07T04:36:38;22.90;;;20.50;;
15553;SDS011;7878;44.632;10.942;2023-05-07T04:39:03;23.42;;;21.02;;
15553;SDS011;7878;44.632;10.942;2023-05-07T04:41:29;23.48;;;19.63;;
15553;SDS011;7878;44.632;10.942;2023-05-07T04:43:55;24.25;;;21.08;;
15553;SDS011;7878;44.632;10.942;2023-05-07T04:46:21;26.77;;;21.33;;
15553;SDS011;7878;44.632;10.942;2023-05-07T04:48:47;26.08;;;21.65;;
15553;SDS011;7878;44.632;10.942;2023-05-07T04:51:13;24.75;;;22.33;;
15553;SDS011;7878;44.632;10.942;2023-05-07T04:53:38;24.73;;;21.92;;
15553;SDS011;7878;44.632;10.942;2023-05-07T04:56:04;25.00;;;22.50;;
15553;SDS011;7878;44.632;10.942;2023-05-07T04:58:30;25.48;;;22.80;;
15553;SDS011;7878;44.632;10.942;2023-05-07T05:00:56;25.60;;;22.63;;
15553;SDS011;7878;44.632;10.942;2023-05-07T05:03:23;26.45;;;23.40;;
15553;SDS011;7878;44.632;10.942;2023-05-07T05:05:49;26.85;;;24.05;;
15553;SDS011;7878;44.632;10.942;2023-05-07T05:08:15;25.95;;;23.30;;
15553;SDS011;7878;44.632;10.942;2023-05-07T05:10:42;26.63;;;23.83;;
15553;SDS011;7878;44.632;10.942;2023-05-07T05:13:08;28.52;;;24.38;;
15553;SDS011;7878;44.632;10.942;2023-05-07T05:15:34;33.30;;;24.42;;
15553;SDS011;7878;44.632;10.942;2023-05-07T05:18:00;25.23;;;22.60;;
15553;SDS011;7878;44.632;10.942;2023-05-07T05:20:26;25.08;;;21.52;;
15553;SDS011;7878;44.632;10.942;2023-05-07T05:22:51;26.67;;;23.60;;
15553;SDS011;7878;44.632;10.942;2023-05-07T05:25:17;24.92;;;22.05;;
15553;SDS011;7878;44.632;10.942;2023-05-07T05:27:43;24.85;;;21.65;;
15553;SDS011;7878;44.632;10.942;2023-05-07T05:30:08;26.25;;;21.65;;
15553;SDS011;7878;44.632;10.942;2023-05-07T05:32:34;24.25;;;21.65;;
15553;SDS011;7878;44.632;10.942;2023-05-07T05:35:00;23.35;;;20.85;;
15553;SDS011;7878;44.632;10.942;2023-05-07T05:37:26;20.77;;;18.60;;
15553;SDS011;7878;44.632;10.942;2023-05-07T05:39:52;20.15;;;17.15;;
15553;SDS011;7878;44.632;10.942;2023-05-07T05:42:19;19.17;;;17.23;;
15553;SDS011;7878;44.632;10.942;2023-05-07T05:44:45;18.13;;;16.27;;
15553;SDS011;7878;44.632;10.942;2023-05-07T05:47:11;18.25;;;16.35;;
15553;SDS011;7878;44.632;10.942;2023-05-07T05:49:36;16.95;;;15.27;;
15553;SDS011;7878;44.632;10.942;2023-05-07T05:52:02;16.30;;;14.63;;
15553;SDS011;7878;44.632;10.942;2023-05-07T05:54:28;15.63;;;13.60;;
15553;SDS011;7878;44.632;10.942;2023-05-07T05:56:53;20.88;;;14.52;;
15553;SDS011;7878;44.632;10.942;2023-05-07T05:59:19;15.27;;;13.15;;
15553;SDS011;7878;44.632;10.942;2023-05-07T06:01:45;14.95;;;13.52;;
15553;SDS011;7878;44.632;10.942;2023-05-07T06:04:11;15.13;;;12.80;;
15553;SDS011;7878;44.632;10.942;2023-05-07T06:06:37;18.70;;;13.15;;
15553;SDS011;7878;44.632;10.942;2023-05-07T06:09:02;15.63;;;13.40;;
15553;SDS011;7878;44.632;10.942;2023-05-07T06:11:28;16.02;;;12.82;;
15553;SDS011;7878;44.632;10.942;2023-05-07T06:13:54;14.90;;;13.32;;
15553;SDS011;7878;44.632;10.942;2023-05-07T06:16:20;14.50;;;12.63;;
15553;SDS011;7878;44.632;10.942;2023-05-07T06:18:45;12.90;;;11.63;;
15553;SDS011;7878;44.632;10.942;2023-05-07T06:21:11;13.43;;;11.52;;
15553;SDS011;7878;44.632;10.942;2023-05-07T06:23:38;15.85;;;11.70;;
15553;SDS011;7878;44.632;10.942;2023-05-07T06:26:05;13.38;;;11.80;;
15553;SDS011;7878;44.632;10.942;2023-05-07T06:28:31;19.70;;;11.05;;
15553;SDS011;7878;44.632;10.942;2023-05-07T06:33:42;14.35;;;11.02;;
15553;SDS011;7878;44.632;10.942;2023-05-07T06:36:09;11.77;;;9.43;;
15553;SDS011;7878;44.632;10.942;2023-05-07T06:38:35;15.00;;;9.82;;
15553;SDS011;7878;44.632;10.942;2023-05-07T06:41:01;13.15;;;10.35;;
15553;SDS011;7878;44.632;10.942;2023-05-07T06:43:27;11.98;;;9.13;;
15553;SDS011;7878;44.632;10.942;2023-05-07T06:45:52;10.95;;;9.23;;
15553;SDS011;7878;44.632;10.942;2023-05-07T06:48:18;13.32;;;10.25;;
15553;SDS011;7878;44.632;10.942;2023-05-07T06:50:44;17.13;;;10.85;;
15553;SDS011;7878;44.632;10.942;2023-05-07T06:53:09;12.60;;;11.38;;
15553;SDS011;7878;44.632;10.942;2023-05-07T06:55:38;13.57;;;12.13;;
15553;SDS011;7878;44.632;10.942;2023-05-07T06:58:04;14.18;;;11.85;;
15553;SDS011;7878;44.632;10.942;2023-05-07T07:00:30;19.00;;;13.05;;
15553;SDS011;7878;44.632;10.942;2023-05-07T07:02:56;14.75;;;13.25;;
15553;SDS011;7878;44.632;10.942;2023-05-07T07:05:22;13.80;;;12.32;;
15553;SDS011;7878;44.632;10.942;2023-05-07T07:07:48;13.90;;;12.38;;
15553;SDS011;7878;44.632;10.942;2023-05-07T07:10:19;15.27;;;12.82;;
15553;SDS011;7878;44.632;10.942;2023-05-07T07:12:45;15.13;;;12.75;;
15553;SDS011;7878;44.632;10.942;2023-05-07T07:15:11;14.98;;;12.35;;
15553;SDS011;7878;44.632;10.942;2023-05-07T07:17:38;15.27;;;12.95;;
15553;SDS011;7878;44.632;10.942;2023-05-07T07:20:04;14.43;;;12.93;;
15553;SDS011;7878;44.632;10.942;2023-05-07T07:22:30;16.67;;;12.95;;
15553;SDS011;7878;44.632;10.942;2023-05-07T07:24:56;14.68;;;13.05;;
15553;SDS011;7878;44.632;10.942;2023-05-07T07:27:21;15.82;;;13.82;;
15553;SDS011;7878;44.632;10.942;2023-05-07T07:29:47;18.98;;;14.50;;
15553;SDS011;7878;44.632;10.942;2023-05-07T07:32:13;15.30;;;12.57;;
15553;SDS011;7878;44.632;10.942;2023-05-07T07:34:39;22.70;;;15.10;;
15553;SDS011;7878;44.632;10.942;2023-05-07T07:37:04;16.05;;;14.35;;
15553;SDS011;7878;44.632;10.942;2023-05-07T07:39:31;17.45;;;14.60;;
15553;SDS011;7878;44.632;10.942;2023-05-07T07:41:57;17.88;;;16.08;;
15553;SDS011;7878;44.632;10.942;2023-05-07T07:44:23;19.00;;;15.63;;
15553;SDS011;7878;44.632;10.942;2023-05-07T07:46:50;16.73;;;15.13;;
15553;SDS011;7878;44.632;10.942;2023-05-07T07:49:15;17.15;;;15.40;;
15553;SDS011;7878;44.632;10.942;2023-05-07T07:51:41;20.95;;;16.45;;
15553;SDS011;7878;44.632;10.942;2023-05-07T07:54:07;18.35;;;16.58;;
15553;SDS011;7878;44.632;10.942;2023-05-07T07:56:33;23.15;;;18.05;;
15553;SDS011;7878;44.632;10.942;2023-05-07T07:58:59;19.67;;;17.48;;
15553;SDS011;7878;44.632;10.942;2023-05-07T08:01:25;19.33;;;16.42;;
15553;SDS011;7878;44.632;10.942;2023-05-07T08:03:51;20.23;;;17.10;;
15553;SDS011;7878;44.632;10.942;2023-05-07T08:06:17;21.35;;;17.45;;
15553;SDS011;7878;44.632;10.942;2023-05-07T08:08:44;19.48;;;17.38;;
15553;SDS011;7878;44.632;10.942;2023-05-07T08:11:10;18.42;;;16.38;;
15553;SDS011;7878;44.632;10.942;2023-05-07T08:13:36;18.95;;;16.85;;
15553;SDS011;7878;44.632;10.942;2023-05-07T08:16:03;18.80;;;15.68;;
15553;SDS011;7878;44.632;10.942;2023-05-07T08:18:29;18.30;;;16.50;;
15553;SDS011;7878;44.632;10.942;2023-05-07T08:20:54;16.90;;;15.27;;
15553;SDS011;7878;44.632;10.942;2023-05-07T08:23:20;20.67;;;16.42;;
15553;SDS011;7878;44.632;10.942;2023-05-07T08:25:47;18.27;;;16.40;;
15553;SDS011;7878;44.632;10.942;2023-05-07T08:28:13;24.95;;;17.38;;
15553;SDS011;7878;44.632;10.942;2023-05-07T08:30:38;16.55;;;14.85;;
15553;SDS011;7878;44.632;10.942;2023-05-07T08:33:04;16.80;;;15.10;;
15553;SDS011;7878;44.632;10.942;2023-05-07T08:35:30;17.42;;;15.63;;
15553;SDS011;7878;44.632;10.942;2023-05-07T08:37:55;19.00;;;15.23;;
15553;SDS011;7878;44.632;10.942;2023-05-07T08:40:24;15.73;;;13.45;;
15553;SDS011;7878;44.632;10.942;2023-05-07T08:42:52;15.25;;;13.60;;
15553;SDS011;7878;44.632;10.942;2023-05-07T08:45:19;17.38;;;14.70;;
15553;SDS011;7878;44.632;10.942;2023-05-07T08:47:52;21.65;;;15.15;;
15553;SDS011;7878;44.632;10.942;2023-05-07T08:50:22;15.45;;;13.95;;
15553;SDS011;7878;44.632;10.942;2023-05-07T08:52:48;15.82;;;14.25;;
15553;SDS011;7878;44.632;10.942;2023-05-07T08:55:14;17.05;;;14.32;;
15553;SDS011;7878;44.632;10.942;2023-05-07T08:57:40;16.48;;;14.48;;
15553;SDS011;7878;44.632;10.942;2023-05-07T09:00:06;19.40;;;17.40;;
15553;SDS011;7878;44.632;10.942;2023-05-07T09:02:32;19.48;;;17.20;;
15553;SDS011;7878;44.632;10.942;2023-05-07T09:04:59;20.17;;;18.25;;
15553;SDS011;7878;44.632;10.942;2023-05-07T09:07:25;18.58;;;16.60;;
15553;SDS011;7878;44.632;10.942;2023-05-07T09:09:52;18.58;;;15.48;;
15553;SDS011;7878;44.632;10.942;2023-05-07T09:12:20;17.73;;;15.52;;
15553;SDS011;7878;44.632;10.942;2023-05-07T09:14:46;15.98;;;14.25;;
15553;SDS011;7878;44.632;10.942;2023-05-07T09:17:12;17.73;;;14.60;;
15553;SDS011;7878;44.632;10.942;2023-05-07T09:19:38;14.68;;;13.05;;
15553;SDS011;7878;44.632;10.942;2023-05-07T09:22:05;15.23;;;13.68;;
15553;SDS011;7878;44.632;10.942;2023-05-07T09:24:33;16.08;;;13.82;;
15553;SDS011;7878;44.632;10.942;2023-05-07T09:27:01;14.38;;;12.80;;
15553;SDS011;7878;44.632;10.942;2023-05-07T09:29:27;14.55;;;13.05;;
15553;SDS011;7878;44.632;10.942;2023-05-07T09:32:03;14.32;;;12.93;;
15553;SDS011;7878;44.632;10.942;2023-05-07T09:34:32;12.38;;;11.10;;
15553;SDS011;7878;44.632;10.942;2023-05-07T09:36:59;11.82;;;10.63;;
15553;SDS011;7878;44.632;10.942;2023-05-07T09:39:26;11.13;;;9.88;;
15553;SDS011;7878;44.632;10.942;2023-05-07T09:42:07;12.88;;;11.55;;
15553;SDS011;7878;44.632;10.942;2023-05-07T09:44:33;11.65;;;10.45;;
15553;SDS011;7878;44.632;10.942;2023-05-07T09:47:00;11.45;;;10.35;;
15553;SDS011;7878;44.632;10.942;2023-05-07T09:49:28;13.15;;;10.30;;
15553;SDS011;7878;44.632;10.942;2023-05-07T09:51:55;11.10;;;9.95;;
15553;SDS011;7878;44.632;10.942;2023-05-07T09:54:24;10.50;;;9.55;;
15553;SDS011;7878;44.632;10.942;2023-05-07T09:56:51;10.60;;;9.38;;
15553;SDS011;7878;44.632;10.942;2023-05-07T09:59:18;9.82;;;8.35;;
15553;SDS011;7878;44.632;10.942;2023-05-07T10:01:45;9.23;;;8.32;;
15553;SDS011;7878;44.632;10.942;2023-05-07T10:04:11;9.00;;;7.20;;
15553;SDS011;7878;44.632;10.942;2023-05-07T10:06:37;8.13;;;6.88;;
15553;SDS011;7878;44.632;10.942;2023-05-07T10:09:03;6.80;;;6.20;;
15553;SDS011;7878;44.632;10.942;2023-05-07T10:11:37;9.38;;;8.00;;
15553;SDS011;7878;44.632;10.942;2023-05-07T10:14:03;10.43;;;7.50;;
15553;SDS011;7878;44.632;10.942;2023-05-07T10:16:31;8.20;;;7.38;;
15553;SDS011;7878;44.632;10.942;2023-05-07T10:18:58;9.68;;;5.85;;
15553;SDS011;7878;44.632;10.942;2023-05-07T10:21:24;6.55;;;5.95;;
15553;SDS011;7878;44.632;10.942;2023-05-07T10:23:59;7.50;;;6.80;;
15553;SDS011;7878;44.632;10.942;2023-05-07T10:26:31;7.88;;;6.55;;
15553;SDS011;7878;44.632;10.942;2023-05-07T10:29:03;8.00;;;7.30;;
15553;SDS011;7878;44.632;10.942;2023-05-07T10:34:13;7.07;;;5.65;;
15553;SDS011;7878;44.632;10.942;2023-05-07T10:36:44;10.30;;;6.85;;
15553;SDS011;7878;44.632;10.942;2023-05-07T10:39:10;5.95;;;5.45;;
15553;SDS011;7878;44.632;10.942;2023-05-07T10:41:36;5.60;;;4.70;;
15553;SDS011;7878;44.632;10.942;2023-05-07T10:44:01;8.18;;;5.35;;
15553;SDS011;7878;44.632;10.942;2023-05-07T10:46:28;5.70;;;5.13;;
15553;SDS011;7878;44.632;10.942;2023-05-07T10:51:26;6.53;;;4.82;;
15553;SDS011;7878;44.632;10.942;2023-05-07T10:56:36;5.80;;;5.30;;
15553;SDS011;7878;44.632;10.942;2023-05-07T11:01:55;5.57;;;5.07;;
15553;SDS011;7878;44.632;10.942;2023-05-07T11:04:22;5.40;;;4.90;;
15553;SDS011;7878;44.632;10.942;2023-05-07T11:15:08;5.10;;;4.60;;
15553;SDS011;7878;44.632;10.942;2023-05-07T11:17:35;4.63;;;4.22;;
15553;SDS011;7878;44.632;10.942;2023-05-07T11:20:18;4.97;;;4.40;;
15553;SDS011;7878;44.632;10.942;2023-05-07T11:22:44;8.98;;;4.07;;
15553;SDS011;7878;44.632;10.942;2023-05-07T11:25:10;4.53;;;3.65;;
15553;SDS011;7878;44.632;10.942;2023-05-07T11:27:41;5.28;;;3.30;;
15553;SDS011;7878;44.632;10.942;2023-05-07T11:30:08;3.80;;;3.50;;
15553;SDS011;7878;44.632;10.942;2023-05-07T11:32:34;4.40;;;3.63;;
15553;SDS011;7878;44.632;10.942;2023-05-07T11:35:00;6.68;;;3.15;;
15553;SDS011;7878;44.632;10.942;2023-05-07T11:37:26;3.28;;;2.70;;
15553;SDS011;7878;44.632;10.942;2023-05-07T11:42:32;3.45;;;2.40;;
15553;SDS011;7878;44.632;10.942;2023-05-07T11:44:59;4.65;;;2.83;;
15553;SDS011;7878;44.632;10.942;2023-05-07T11:47:26;2.50;;;2.30;;
15553;SDS011;7878;44.632;10.942;2023-05-07T11:49:54;3.97;;;2.45;;
15553;SDS011;7878;44.632;10.942;2023-05-07T11:52:22;3.13;;;2.40;;
15553;SDS011;7878;44.632;10.942;2023-05-07T11:54:52;3.70;;;2.50;;
15553;SDS011;7878;44.632;10.942;2023-05-07T11:57:20;3.00;;;2.70;;
15553;SDS011;7878;44.632;10.942;2023-05-07T11:59:46;3.17;;;2.08;;
15553;SDS011;7878;44.632;10.942;2023-05-07T12:02:13;5.07;;;2.55;;
15553;SDS011;7878;44.632;10.942;2023-05-07T12:04:40;3.45;;;2.58;;
15553;SDS011;7878;44.632;10.942;2023-05-07T12:07:15;2.42;;;2.08;;
15553;SDS011;7878;44.632;10.942;2023-05-07T12:09:41;2.40;;;2.17;;
15553;SDS011;7878;44.632;10.942;2023-05-07T12:12:07;2.47;;;2.28;;
15553;SDS011;7878;44.632;10.942;2023-05-07T12:14:37;2.72;;;2.40;;
15553;SDS011;7878;44.632;10.942;2023-05-07T12:17:04;4.97;;;3.33;;
15553;SDS011;7878;44.632;10.942;2023-05-07T12:19:30;3.47;;;2.95;;
15553;SDS011;7878;44.632;10.942;2023-05-07T12:21:58;3.55;;;3.13;;
15553;SDS011;7878;44.632;10.942;2023-05-07T12:24:24;4.90;;;3.67;;
15553;SDS011;7878;44.632;10.942;2023-05-07T12:26:49;3.45;;;3.03;;
15553;SDS011;7878;44.632;10.942;2023-05-07T12:29:15;4.28;;;3.65;;
15553;SDS011;7878;44.632;10.942;2023-05-07T12:31:41;4.55;;;3.78;;
15553;SDS011;7878;44.632;10.942;2023-05-07T12:34:07;4.32;;;3.38;;
15553;SDS011;7878;44.632;10.942;2023-05-07T12:36:39;3.83;;;3.08;;
15553;SDS011;7878;44.632;10.942;2023-05-07T12:39:06;3.17;;;2.75;;
15553;SDS011;7878;44.632;10.942;2023-05-07T12:41:36;3.17;;;2.88;;
15553;SDS011;7878;44.632;10.942;2023-05-07T12:44:18;3.75;;;2.60;;
15553;SDS011;7878;44.632;10.942;2023-05-07T12:46:44;3.97;;;2.75;;
15553;SDS011;7878;44.632;10.942;2023-05-07T12:49:11;4.28;;;2.60;;
15553;SDS011;7878;44.632;10.942;2023-05-07T12:51:37;4.13;;;2.53;;
15553;SDS011;7878;44.632;10.942;2023-05-07T12:54:03;4.03;;;2.63;;
15553;SDS011;7878;44.632;10.942;2023-05-07T12:56:30;2.53;;;2.33;;
15553;SDS011;7878;44.632;10.942;2023-05-07T12:58:59;2.78;;;2.38;;
15553;SDS011;7878;44.632;10.942;2023-05-07T13:01:28;4.05;;;2.40;;
15553;SDS011;7878;44.632;10.942;2023-05-07T13:04:01;4.72;;;2.15;;
15553;SDS011;7878;44.632;10.942;2023-05-07T13:06:29;3.53;;;2.20;;
15553;SDS011;7878;44.632;10.942;2023-05-07T13:08:55;2.55;;;2.35;;
15553;SDS011;7878;44.632;10.942;2023-05-07T13:11:20;2.67;;;2.40;;
15553;SDS011;7878;44.632;10.942;2023-05-07T13:13:46;2.92;;;2.20;;
15553;SDS011;7878;44.632;10.942;2023-05-07T13:16:12;3.65;;;2.45;;
15553;SDS011;7878;44.632;10.942;2023-05-07T13:18:38;2.60;;;2.40;;
15553;SDS011;7878;44.632;10.942;2023-05-07T13:21:05;3.30;;;2.40;;
15553;SDS011;7878;44.632;10.942;2023-05-07T13:23:31;5.07;;;2.38;;
15553;SDS011;7878;44.632;10.942;2023-05-07T13:25:56;3.95;;;2.33;;
15553;SDS011;7878;44.632;10.942;2023-05-07T13:28:24;3.67;;;2.53;;
15553;SDS011;7878;44.632;10.942;2023-05-07T13:30:51;6.50;;;3.00;;
15553;SDS011;7878;44.632;10.942;2023-05-07T13:33:17;3.75;;;2.80;;
15553;SDS011;7878;44.632;10.942;2023-05-07T13:35:44;6.25;;;2.47;;
15553;SDS011;7878;44.632;10.942;2023-05-07T13:38:09;2.55;;;2.20;;
15553;SDS011;7878;44.632;10.942;2023-05-07T13:40:35;5.25;;;2.72;;
15553;SDS011;7878;44.632;10.942;2023-05-07T13:43:01;3.97;;;2.97;;
15553;SDS011;7878;44.632;10.942;2023-05-07T13:45:29;5.18;;;3.00;;
15553;SDS011;7878;44.632;10.942;2023-05-07T13:47:55;4.70;;;2.97;;
15553;SDS011;7878;44.632;10.942;2023-05-07T13:50:22;9.85;;;3.20;;
15553;SDS011;7878;44.632;10.942;2023-05-07T13:52:47;4.35;;;3.08;;
15553;SDS011;7878;44.632;10.942;2023-05-07T13:55:19;3.63;;;2.80;;
15553;SDS011;7878;44.632;10.942;2023-05-07T13:57:45;3.10;;;2.90;;
15553;SDS011;7878;44.632;10.942;2023-05-07T14:00:12;4.50;;;2.70;;
15553;SDS011;7878;44.632;10.942;2023-05-07T14:02:39;4.53;;;2.67;;
15553;SDS011;7878;44.632;10.942;2023-05-07T14:05:05;3.08;;;2.78;;
15553;SDS011;7878;44.632;10.942;2023-05-07T14:07:31;3.83;;;3.38;;
15553;SDS011;7878;44.632;10.942;2023-05-07T14:09:57;3.15;;;2.67;;
15553;SDS011;7878;44.632;10.942;2023-05-07T14:12:22;4.30;;;2.63;;
15553;SDS011;7878;44.632;10.942;2023-05-07T14:14:48;5.57;;;3.10;;
15553;SDS011;7878;44.632;10.942;2023-05-07T14:17:16;3.30;;;2.72;;
15553;SDS011;7878;44.632;10.942;2023-05-07T14:19:42;2.88;;;2.50;;
15553;SDS011;7878;44.632;10.942;2023-05-07T14:22:08;3.17;;;2.90;;
15553;SDS011;7878;44.632;10.942;2023-05-07T14:24:34;2.70;;;2.40;;
15553;SDS011;7878;44.632;10.942;2023-05-07T14:26:59;4.60;;;2.70;;
15553;SDS011;7878;44.632;10.942;2023-05-07T14:29:25;2.97;;;2.67;;
15553;SDS011;7878;44.632;10.942;2023-05-07T14:31:51;3.33;;;2.85;;
15553;SDS011;7878;44.632;10.942;2023-05-07T14:34:16;3.03;;;2.72;;
15553;SDS011;7878;44.632;10.942;2023-05-07T14:36:42;5.55;;;2.60;;
15553;SDS011;7878;44.632;10.942;2023-05-07T14:39:09;6.25;;;2.92;;
15553;SDS011;7878;44.632;10.942;2023-05-07T14:41:34;2.83;;;2.60;;
15553;SDS011;7878;44.632;10.942;2023-05-07T14:44:00;7.00;;;3.20;;
15553;SDS011;7878;44.632;10.942;2023-05-07T14:46:26;3.80;;;2.92;;
15553;SDS011;7878;44.632;10.942;2023-05-07T14:48:52;3.90;;;3.38;;
15553;SDS011;7878;44.632;10.942;2023-05-07T14:51:18;3.90;;;3.00;;